sensor_id;sensor_type;location;lat;lon;timestamp;pressure;altitude;pressure_sealevel;temperature;humidity
10732;BME280;5417;42.686;23.244;2023-06-14T00:02:04;94006.50;;;18.11;92.48
10732;BME280;5417;42.686;23.244;2023-06-14T00:38:04;93982.44;;;17.99;93.38
10732;BME280;5417;42.686;23.244;2023-06-14T00:40:43;93988.78;;;18.05;93.33
10732;BME280;5417;42.686;23.244;2023-06-14T00:43:10;93983.72;;;18.03;93.32
10732;BME280;5417;42.686;23.244;2023-06-14T00:45:37;93978.25;;;18.05;93.19
10732;BME280;5417;42.686;23.244;2023-06-14T00:48:04;93983.16;;;18.08;93.35
10732;BME280;5417;42.686;23.244;2023-06-14T00:50:32;93979.06;;;18.05;93.06
10732;BME280;5417;42.686;23.244;2023-06-14T00:52:59;93973.34;;;18.02;93.36
10732;BME280;5417;42.686;23.244;2023-06-14T00:55:28;93983.81;;;18.10;93.33
10732;BME280;5417;42.686;23.244;2023-06-14T00:57:55;93983.81;;;18.10;93.35
10732;BME280;5417;42.686;23.244;2023-06-14T01:00:22;93982.97;;;18.09;93.24
10732;BME280;5417;42.686;23.244;2023-06-14T01:02:50;93964.44;;;18.03;93.03
10732;BME280;5417;42.686;23.244;2023-06-14T01:05:30;93982.34;;;18.07;93.18
10732;BME280;5417;42.686;23.244;2023-06-14T01:08:08;93979.06;;;18.05;93.10
10732;BME280;5417;42.686;23.244;2023-06-14T01:11:19;93963.63;;;18.02;93.17
10732;BME280;5417;42.686;23.244;2023-06-14T01:13:39;93986.44;;;18.10;93.48
10732;BME280;5417;42.686;23.244;2023-06-14T01:16:07;93966.91;;;18.04;93.38
10732;BME280;5417;42.686;23.244;2023-06-14T01:18:34;93979.34;;;18.10;93.80
10732;BME280;5417;42.686;23.244;2023-06-14T01:21:02;93979.34;;;18.10;93.53
10732;BME280;5417;42.686;23.244;2023-06-14T01:23:32;93964.28;;;18.04;93.59
10732;BME280;5417;42.686;23.244;2023-06-14T01:26:00;93977.34;;;18.12;93.38
10732;BME280;5417;42.686;23.244;2023-06-14T01:28:28;93974.72;;;18.12;93.77
10732;BME280;5417;42.686;23.244;2023-06-14T01:31:00;93980.91;;;18.19;92.84
10732;BME280;5417;42.686;23.244;2023-06-14T01:33:31;93970.09;;;18.14;91.98
10732;BME280;5417;42.686;23.244;2023-06-14T01:35:59;93969.09;;;18.15;91.33
10732;BME280;5417;42.686;23.244;2023-06-14T01:38:27;93967.81;;;18.11;91.39
10732;BME280;5417;42.686;23.244;2023-06-14T01:40:58;93983.16;;;18.08;91.37
10732;BME280;5417;42.686;23.244;2023-06-14T01:43:26;93973.34;;;18.02;91.68
10732;BME280;5417;42.686;23.244;2023-06-14T01:45:54;93979.25;;;18.04;91.53
10732;BME280;5417;42.686;23.244;2023-06-14T01:48:21;93971.72;;;18.01;92.08
10732;BME280;5417;42.686;23.244;2023-06-14T01:50:48;93969.09;;;18.01;92.26
10732;BME280;5417;42.686;23.244;2023-06-14T01:53:16;93990.97;;;18.16;90.95
10732;BME280;5417;42.686;23.244;2023-06-14T01:55:42;93984.66;;;18.25;88.74
10732;BME280;5417;42.686;23.244;2023-06-14T01:58:11;93989.47;;;18.21;87.93
10732;BME280;5417;42.686;23.244;2023-06-14T02:00:38;93993.56;;;18.24;88.05
10732;BME280;5417;42.686;23.244;2023-06-14T02:03:05;93986.91;;;18.28;88.06
10732;BME280;5417;42.686;23.244;2023-06-14T02:05:32;93994.81;;;18.28;88.72
10732;BME280;5417;42.686;23.244;2023-06-14T02:08:00;93993.00;;;18.28;87.97
10732;BME280;5417;42.686;23.244;2023-06-14T02:10:26;93996.63;;;18.27;87.74
10732;BME280;5417;42.686;23.244;2023-06-14T02:12:53;94004.19;;;18.31;88.27
10732;BME280;5417;42.686;23.244;2023-06-14T02:15:22;94005.72;;;18.25;88.25
10732;BME280;5417;42.686;23.244;2023-06-14T02:17:48;93994.34;;;18.10;88.32
10732;BME280;5417;42.686;23.244;2023-06-14T02:20:16;94004.50;;;18.13;88.84
10732;BME280;5417;42.686;23.244;2023-06-14T02:22:45;93999.50;;;18.03;88.50
10732;BME280;5417;42.686;23.244;2023-06-14T02:25:12;94005.13;;;18.00;89.14
10732;BME280;5417;42.686;23.244;2023-06-14T02:28:04;94015.13;;;18.05;89.45
10732;BME280;5417;42.686;23.244;2023-06-14T02:30:32;93998.78;;;17.94;89.28
10732;BME280;5417;42.686;23.244;2023-06-14T02:32:59;94013.38;;;17.97;89.37
10732;BME280;5417;42.686;23.244;2023-06-14T02:35:26;94002.59;;;17.92;89.63
10732;BME280;5417;42.686;23.244;2023-06-14T02:37:53;94006.50;;;17.96;89.55
10732;BME280;5417;42.686;23.244;2023-06-14T02:40:20;94006.84;;;17.93;89.66
10732;BME280;5417;42.686;23.244;2023-06-14T02:42:47;93995.41;;;17.86;89.73
10732;BME280;5417;42.686;23.244;2023-06-14T02:45:14;94007.22;;;17.90;89.79
10732;BME280;5417;42.686;23.244;2023-06-14T02:47:43;93981.13;;;17.80;89.75
10732;BME280;5417;42.686;23.244;2023-06-14T02:50:09;93998.13;;;17.92;89.92
10732;BME280;5417;42.686;23.244;2023-06-14T02:52:36;93999.50;;;17.88;89.92
10732;BME280;5417;42.686;23.244;2023-06-14T02:55:03;93999.50;;;17.88;90.04
10732;BME280;5417;42.686;23.244;2023-06-14T02:57:31;93996.56;;;17.83;89.98
10732;BME280;5417;42.686;23.244;2023-06-14T02:59:58;94010.84;;;17.89;89.96
10732;BME280;5417;42.686;23.244;2023-06-14T03:02:25;93999.38;;;17.82;89.39
10732;BME280;5417;42.686;23.244;2023-06-14T03:04:54;93997.84;;;17.87;89.27
10732;BME280;5417;42.686;23.244;2023-06-14T03:14:11;94025.75;;;17.96;88.73
10732;BME280;5417;42.686;23.244;2023-06-14T03:16:39;94016.38;;;17.94;88.75
10732;BME280;5417;42.686;23.244;2023-06-14T03:19:06;94026.94;;;18.09;88.72
10732;BME280;5417;42.686;23.244;2023-06-14T03:21:34;94028.94;;;18.07;88.44
10732;BME280;5417;42.686;23.244;2023-06-14T03:24:01;94033.56;;;18.05;88.75
10732;BME280;5417;42.686;23.244;2023-06-14T03:26:28;94035.84;;;18.08;88.92
10732;BME280;5417;42.686;23.244;2023-06-14T03:28:56;94036.84;;;18.07;89.15
10732;BME280;5417;42.686;23.244;2023-06-14T03:31:23;94031.66;;;17.98;89.11
10732;BME280;5417;42.686;23.244;2023-06-14T03:33:50;94035.09;;;17.99;89.83
10732;BME280;5417;42.686;23.244;2023-06-14T03:36:17;94030.25;;;17.88;89.31
10732;BME280;5417;42.686;23.244;2023-06-14T03:38:45;94016.28;;;17.87;89.33
10732;BME280;5417;42.686;23.244;2023-06-14T03:41:32;94029.56;;;17.94;89.77
10732;BME280;5417;42.686;23.244;2023-06-14T03:43:59;94032.38;;;17.92;89.70
10732;BME280;5417;42.686;23.244;2023-06-14T03:46:26;94019.56;;;17.89;89.73
10732;BME280;5417;42.686;23.244;2023-06-14T03:48:52;94030.09;;;17.89;90.06
10732;BME280;5417;42.686;23.244;2023-06-14T03:51:19;94032.09;;;17.87;90.25
10732;BME280;5417;42.686;23.244;2023-06-14T03:53:48;94022.50;;;17.72;90.75
10732;BME280;5417;42.686;23.244;2023-06-14T03:56:15;94036.28;;;17.96;90.21
10732;BME280;5417;42.686;23.244;2023-06-14T03:58:41;94034.75;;;18.02;89.42
10732;BME280;5417;42.686;23.244;2023-06-14T04:01:32;94039.38;;;18.00;89.41
10732;BME280;5417;42.686;23.244;2023-06-14T04:04:25;94047.56;;;18.05;88.97
10732;BME280;5417;42.686;23.244;2023-06-14T04:06:54;94038.66;;;18.06;88.56
10732;BME280;5417;42.686;23.244;2023-06-14T04:09:23;94039.66;;;18.05;89.13
10732;BME280;5417;42.686;23.244;2023-06-14T04:11:51;94035.91;;;18.00;88.96
10732;BME280;5417;42.686;23.244;2023-06-14T04:14:18;94040.78;;;18.25;87.89
10732;BME280;5417;42.686;23.244;2023-06-14T04:16:45;94034.63;;;18.33;86.59
10732;BME280;5417;42.686;23.244;2023-06-14T04:19:12;94039.97;;;18.40;85.45
10732;BME280;5417;42.686;23.244;2023-06-14T04:21:39;94029.81;;;18.37;84.13
10732;BME280;5417;42.686;23.244;2023-06-14T04:24:06;94035.53;;;18.40;84.29
10732;BME280;5417;42.686;23.244;2023-06-14T04:26:41;94043.25;;;18.42;85.08
10732;BME280;5417;42.686;23.244;2023-06-14T04:29:10;94030.16;;;18.34;86.42
10732;BME280;5417;42.686;23.244;2023-06-14T04:31:39;94036.44;;;18.33;86.48
10732;BME280;5417;42.686;23.244;2023-06-14T04:34:06;94037.25;;;18.33;86.75
10732;BME280;5417;42.686;23.244;2023-06-14T04:36:33;94036.25;;;18.34;87.14
10732;BME280;5417;42.686;23.244;2023-06-14T04:39:02;94040.88;;;18.47;86.99
10732;BME280;5417;42.686;23.244;2023-06-14T04:41:29;94041.88;;;18.60;87.29
10732;BME280;5417;42.686;23.244;2023-06-14T04:43:59;94034.22;;;18.74;86.55
10732;BME280;5417;42.686;23.244;2023-06-14T04:46:27;94030.19;;;18.92;86.04
10732;BME280;5417;42.686;23.244;2023-06-14T04:48:54;94040.47;;;19.23;84.13
10732;BME280;5417;42.686;23.244;2023-06-14T04:51:22;94036.00;;;19.39;82.86
10732;BME280;5417;42.686;23.244;2023-06-14T04:53:55;94045.25;;;19.71;81.29
10732;BME280;5417;42.686;23.244;2023-06-14T04:56:24;94043.63;;;19.91;79.80
10732;BME280;5417;42.686;23.244;2023-06-14T04:58:52;94053.13;;;20.07;78.63
10732;BME280;5417;42.686;23.244;2023-06-14T05:01:21;94050.84;;;20.04;78.27
10732;BME280;5417;42.686;23.244;2023-06-14T05:03:48;94053.81;;;19.94;77.61
10732;BME280;5417;42.686;23.244;2023-06-14T05:06:15;94054.13;;;20.06;78.13
10732;BME280;5417;42.686;23.244;2023-06-14T05:08:42;94055.28;;;20.25;76.86
10732;BME280;5417;42.686;23.244;2023-06-14T05:11:09;94059.63;;;20.32;76.21
10732;BME280;5417;42.686;23.244;2023-06-14T05:13:36;94067.81;;;20.37;75.69
10732;BME280;5417;42.686;23.244;2023-06-14T05:16:05;94052.63;;;20.46;75.51
10732;BME280;5417;42.686;23.244;2023-06-14T05:18:33;94060.69;;;20.66;74.45
10732;BME280;5417;42.686;23.244;2023-06-14T05:21:01;94074.56;;;20.74;73.63
10732;BME280;5417;42.686;23.244;2023-06-14T05:23:29;94073.13;;;20.72;73.34
10732;BME280;5417;42.686;23.244;2023-06-14T05:25:56;94073.53;;;20.69;74.30
10732;BME280;5417;42.686;23.244;2023-06-14T05:28:23;94075.66;;;20.52;74.86
10732;BME280;5417;42.686;23.244;2023-06-14T05:30:50;94070.41;;;20.31;75.87
10732;BME280;5417;42.686;23.244;2023-06-14T05:33:19;94083.91;;;20.21;76.41
10732;BME280;5417;42.686;23.244;2023-06-14T05:35:47;94083.44;;;20.11;77.06
10732;BME280;5417;42.686;23.244;2023-06-14T05:38:14;94088.38;;;20.21;77.71
10732;BME280;5417;42.686;23.244;2023-06-14T05:40:41;94088.72;;;20.11;78.48
10732;BME280;5417;42.686;23.244;2023-06-14T05:43:08;94088.38;;;20.21;78.92
10732;BME280;5417;42.686;23.244;2023-06-14T05:45:36;94089.19;;;20.21;78.13
10732;BME280;5417;42.686;23.244;2023-06-14T05:48:03;94087.91;;;20.10;77.67
10732;BME280;5417;42.686;23.244;2023-06-14T05:50:30;94089.41;;;19.98;78.35
10732;BME280;5417;42.686;23.244;2023-06-14T05:52:58;94091.81;;;19.93;78.41
10732;BME280;5417;42.686;23.244;2023-06-14T05:55:25;94094.78;;;19.83;79.49
10732;BME280;5417;42.686;23.244;2023-06-14T05:57:52;94098.50;;;19.74;80.36
10732;BME280;5417;42.686;23.244;2023-06-14T06:00:20;94106.56;;;19.51;80.06
10732;BME280;5417;42.686;23.244;2023-06-14T06:02:47;94096.03;;;19.51;81.38
10732;BME280;5417;42.686;23.244;2023-06-14T06:05:14;94105.88;;;19.43;81.49
10732;BME280;5417;42.686;23.244;2023-06-14T06:07:42;94102.47;;;19.28;82.50
10732;BME280;5417;42.686;23.244;2023-06-14T06:10:11;94101.97;;;19.24;82.88
10732;BME280;5417;42.686;23.244;2023-06-14T06:12:38;94099.44;;;19.16;83.42
10732;BME280;5417;42.686;23.244;2023-06-14T06:15:59;94104.91;;;19.14;83.91
10732;BME280;5417;42.686;23.244;2023-06-14T06:18:19;94107.56;;;19.00;84.26
10732;BME280;5417;42.686;23.244;2023-06-14T06:20:46;94102.66;;;18.97;84.54
10732;BME280;5417;42.686;23.244;2023-06-14T06:23:13;94106.56;;;19.01;85.18
10732;BME280;5417;42.686;23.244;2023-06-14T06:25:42;94115.75;;;19.05;85.26
10732;BME280;5417;42.686;23.244;2023-06-14T06:28:09;94108.09;;;19.10;84.36
10732;BME280;5417;42.686;23.244;2023-06-14T06:30:36;94111.38;;;19.12;84.46
10732;BME280;5417;42.686;23.244;2023-06-14T06:33:03;94111.81;;;19.15;83.84
10732;BME280;5417;42.686;23.244;2023-06-14T06:35:30;94111.25;;;19.20;84.09
10732;BME280;5417;42.686;23.244;2023-06-14T06:37:59;94114.84;;;19.27;83.40
10732;BME280;5417;42.686;23.244;2023-06-14T06:40:26;94105.63;;;19.38;83.68
10732;BME280;5417;42.686;23.244;2023-06-14T06:43:12;94107.41;;;19.52;83.65
10732;BME280;5417;42.686;23.244;2023-06-14T06:45:42;94101.53;;;19.71;85.16
10732;BME280;5417;42.686;23.244;2023-06-14T06:48:09;94103.63;;;19.97;82.52
10732;BME280;5417;42.686;23.244;2023-06-14T06:50:36;94110.63;;;20.05;80.57
10732;BME280;5417;42.686;23.244;2023-06-14T06:53:03;94109.09;;;20.38;79.29
10732;BME280;5417;42.686;23.244;2023-06-14T06:55:30;94110.97;;;20.72;77.67
10732;BME280;5417;42.686;23.244;2023-06-14T06:57:57;94115.00;;;20.96;75.77
10732;BME280;5417;42.686;23.244;2023-06-14T07:00:27;94108.84;;;21.24;73.39
10732;BME280;5417;42.686;23.244;2023-06-14T07:02:54;94111.19;;;21.40;72.77
10732;BME280;5417;42.686;23.244;2023-06-14T07:05:22;94112.44;;;21.51;71.68
10732;BME280;5417;42.686;23.244;2023-06-14T07:07:49;94113.56;;;21.83;73.32
10732;BME280;5417;42.686;23.244;2023-06-14T07:10:16;94110.81;;;22.30;71.19
10732;BME280;5417;42.686;23.244;2023-06-14T07:12:43;94097.78;;;22.55;68.95
10732;BME280;5417;42.686;23.244;2023-06-14T07:15:11;94102.25;;;22.61;68.10
10732;BME280;5417;42.686;23.244;2023-06-14T07:17:39;94100.59;;;22.74;67.30
10732;BME280;5417;42.686;23.244;2023-06-14T07:29:39;94103.25;;;22.34;67.39
10732;BME280;5417;42.686;23.244;2023-06-14T07:32:20;94093.69;;;22.20;66.75
10732;BME280;5417;42.686;23.244;2023-06-14T07:35:04;94106.09;;;22.13;67.85
10732;BME280;5417;42.686;23.244;2023-06-14T07:37:32;94093.88;;;22.18;68.67
10732;BME280;5417;42.686;23.244;2023-06-14T07:39:59;94086.34;;;22.15;66.69
10732;BME280;5417;42.686;23.244;2023-06-14T07:42:28;94101.00;;;22.18;65.87
10732;BME280;5417;42.686;23.244;2023-06-14T07:44:55;94099.38;;;22.30;65.90
10732;BME280;5417;42.686;23.244;2023-06-14T07:47:22;94102.25;;;22.68;66.80
10732;BME280;5417;42.686;23.244;2023-06-14T07:49:49;94102.84;;;22.70;65.18
10732;BME280;5417;42.686;23.244;2023-06-14T07:52:17;94105.94;;;22.80;64.88
10732;BME280;5417;42.686;23.244;2023-06-14T07:54:44;94101.00;;;22.71;64.18
10732;BME280;5417;42.686;23.244;2023-06-14T07:58:05;94119.59;;;22.64;63.84
10732;BME280;5417;42.686;23.244;2023-06-14T08:00:25;94117.53;;;22.73;64.42
10732;BME280;5417;42.686;23.244;2023-06-14T08:02:52;94120.59;;;22.70;64.16
10732;BME280;5417;42.686;23.244;2023-06-14T08:05:24;94111.63;;;22.71;65.07
10732;BME280;5417;42.686;23.244;2023-06-14T08:07:52;94119.19;;;22.80;64.75
10732;BME280;5417;42.686;23.244;2023-06-14T08:10:20;94129.81;;;22.93;63.69
10732;BME280;5417;42.686;23.244;2023-06-14T08:12:47;94133.06;;;22.89;63.82
10732;BME280;5417;42.686;23.244;2023-06-14T08:15:15;94130.63;;;23.01;64.40
10732;BME280;5417;42.686;23.244;2023-06-14T08:17:42;94136.03;;;23.32;64.65
10732;BME280;5417;42.686;23.244;2023-06-14T08:20:10;94132.44;;;23.78;63.97
10732;BME280;5417;42.686;23.244;2023-06-14T08:22:37;94137.84;;;24.03;60.24
10732;BME280;5417;42.686;23.244;2023-06-14T08:25:07;94132.16;;;24.31;59.85
10732;BME280;5417;42.686;23.244;2023-06-14T08:27:34;94136.34;;;24.45;60.26
10732;BME280;5417;42.686;23.244;2023-06-14T08:30:01;94126.75;;;24.44;59.15
10732;BME280;5417;42.686;23.244;2023-06-14T08:32:28;94133.78;;;24.63;60.87
10732;BME280;5417;42.686;23.244;2023-06-14T08:34:55;94134.53;;;24.45;60.49
10732;BME280;5417;42.686;23.244;2023-06-14T08:37:22;94125.09;;;24.11;61.38
10732;BME280;5417;42.686;23.244;2023-06-14T08:39:50;94130.03;;;23.70;62.72
10732;BME280;5417;42.686;23.244;2023-06-14T08:42:19;94128.88;;;23.46;63.66
10732;BME280;5417;42.686;23.244;2023-06-14T08:44:48;94128.06;;;23.32;62.98
10732;BME280;5417;42.686;23.244;2023-06-14T08:47:15;94130.97;;;23.24;64.13
10732;BME280;5417;42.686;23.244;2023-06-14T08:49:46;94122.19;;;23.23;64.27
10732;BME280;5417;42.686;23.244;2023-06-14T08:52:15;94121.53;;;23.35;65.46
10732;BME280;5417;42.686;23.244;2023-06-14T08:54:46;94127.25;;;23.32;64.27
10732;BME280;5417;42.686;23.244;2023-06-14T08:57:14;94126.03;;;23.27;62.78
10732;BME280;5417;42.686;23.244;2023-06-14T08:59:47;94121.72;;;23.40;63.25
10732;BME280;5417;42.686;23.244;2023-06-14T09:02:18;94118.25;;;23.46;66.04
10732;BME280;5417;42.686;23.244;2023-06-14T09:04:47;94116.41;;;23.40;66.30
10732;BME280;5417;42.686;23.244;2023-06-14T09:07:16;94112.94;;;23.33;65.27
10732;BME280;5417;42.686;23.244;2023-06-14T09:09:42;94112.38;;;23.24;64.95
10732;BME280;5417;42.686;23.244;2023-06-14T09:12:10;94109.97;;;23.09;64.69
10732;BME280;5417;42.686;23.244;2023-06-14T09:14:38;94103.59;;;23.23;65.57
10732;BME280;5417;42.686;23.244;2023-06-14T09:17:08;94107.03;;;23.30;64.09
10732;BME280;5417;42.686;23.244;2023-06-14T09:19:40;94107.50;;;23.14;63.70
10732;BME280;5417;42.686;23.244;2023-06-14T09:22:07;94106.94;;;22.86;65.63
10732;BME280;5417;42.686;23.244;2023-06-14T09:24:37;94096.31;;;22.73;66.67
10732;BME280;5417;42.686;23.244;2023-06-14T09:27:04;94102.25;;;22.55;65.05
10732;BME280;5417;42.686;23.244;2023-06-14T09:29:31;94102.66;;;22.52;66.45
10732;BME280;5417;42.686;23.244;2023-06-14T09:31:58;94111.22;;;22.60;66.61
10732;BME280;5417;42.686;23.244;2023-06-14T09:34:27;94109.59;;;22.59;65.35
10732;BME280;5417;42.686;23.244;2023-06-14T09:37:31;94109.19;;;22.62;66.33
10732;BME280;5417;42.686;23.244;2023-06-14T09:39:58;94113.88;;;22.54;65.31
10732;BME280;5417;42.686;23.244;2023-06-14T09:42:26;94106.13;;;22.65;66.58
10732;BME280;5417;42.686;23.244;2023-06-14T09:44:54;94104.28;;;22.73;66.66
10732;BME280;5417;42.686;23.244;2023-06-14T09:47:22;94101.03;;;22.84;66.89
10732;BME280;5417;42.686;23.244;2023-06-14T09:49:50;94102.84;;;22.77;64.58
10732;BME280;5417;42.686;23.244;2023-06-14T09:55:50;94084.59;;;23.20;62.41
10732;BME280;5417;42.686;23.244;2023-06-14T09:58:20;94084.94;;;23.37;62.16
10732;BME280;5417;42.686;23.244;2023-06-14T10:00:50;94078.97;;;23.54;61.19
10732;BME280;5417;42.686;23.244;2023-06-14T10:03:21;94087.81;;;23.86;61.61
10732;BME280;5417;42.686;23.244;2023-06-14T10:05:52;94085.44;;;24.10;60.66
10732;BME280;5417;42.686;23.244;2023-06-14T10:08:23;94074.78;;;24.41;60.93
10732;BME280;5417;42.686;23.244;2023-06-14T10:10:53;94077.22;;;24.68;59.32
10732;BME280;5417;42.686;23.244;2023-06-14T10:13:20;94072.81;;;24.80;57.51
10732;BME280;5417;42.686;23.244;2023-06-14T10:16:02;94074.34;;;24.88;58.53
10732;BME280;5417;42.686;23.244;2023-06-14T10:18:35;94074.50;;;24.74;59.05
10732;BME280;5417;42.686;23.244;2023-06-14T10:21:15;94066.22;;;24.82;61.14
10732;BME280;5417;42.686;23.244;2023-06-14T10:23:45;94067.78;;;24.90;59.18
10732;BME280;5417;42.686;23.244;2023-06-14T10:26:20;94062.28;;;25.10;60.83
10732;BME280;5417;42.686;23.244;2023-06-14T10:28:59;94053.50;;;25.09;58.44
10732;BME280;5417;42.686;23.244;2023-06-14T10:31:43;94053.03;;;25.12;58.60
10732;BME280;5417;42.686;23.244;2023-06-14T10:34:10;94055.28;;;24.72;57.77
10732;BME280;5417;42.686;23.244;2023-06-14T10:36:43;94056.00;;;24.61;58.88
10732;BME280;5417;42.686;23.244;2023-06-14T10:39:13;94047.34;;;24.41;59.56
10732;BME280;5417;42.686;23.244;2023-06-14T10:41:41;94045.28;;;24.18;59.67
10732;BME280;5417;42.686;23.244;2023-06-14T10:47:40;94044.59;;;23.98;58.23
10732;BME280;5417;42.686;23.244;2023-06-14T10:50:08;94045.81;;;24.02;58.36
10732;BME280;5417;42.686;23.244;2023-06-14T10:59:46;94034.78;;;23.98;59.96
10732;BME280;5417;42.686;23.244;2023-06-14T11:02:27;94032.78;;;23.94;59.14
10732;BME280;5417;42.686;23.244;2023-06-14T11:05:58;94021.59;;;24.10;60.08
10732;BME280;5417;42.686;23.244;2023-06-14T11:11:31;94003.91;;;24.22;56.74
10732;BME280;5417;42.686;23.244;2023-06-14T11:13:59;94022.34;;;24.48;56.69
10732;BME280;5417;42.686;23.244;2023-06-14T11:16:28;94019.84;;;24.72;56.38
10732;BME280;5417;42.686;23.244;2023-06-14T11:18:57;94017.56;;;24.57;55.66
10732;BME280;5417;42.686;23.244;2023-06-14T11:21:24;94015.28;;;24.36;55.66
10732;BME280;5417;42.686;23.244;2023-06-14T11:23:56;94010.41;;;24.26;56.43
10732;BME280;5417;42.686;23.244;2023-06-14T11:26:27;94020.88;;;24.28;56.76
10732;BME280;5417;42.686;23.244;2023-06-14T11:28:57;93998.94;;;24.07;56.81
10732;BME280;5417;42.686;23.244;2023-06-14T11:31:47;94014.94;;;24.26;57.44
10732;BME280;5417;42.686;23.244;2023-06-14T11:34:14;94009.03;;;24.48;57.96
10732;BME280;5417;42.686;23.244;2023-06-14T11:36:41;94008.97;;;24.73;58.23
10732;BME280;5417;42.686;23.244;2023-06-14T11:39:08;94009.94;;;24.79;56.37
10732;BME280;5417;42.686;23.244;2023-06-14T11:41:37;94014.31;;;24.73;55.34
10732;BME280;5417;42.686;23.244;2023-06-14T11:44:05;93993.59;;;24.57;55.25
10732;BME280;5417;42.686;23.244;2023-06-14T11:46:32;94005.94;;;24.51;56.28
10732;BME280;5417;42.686;23.244;2023-06-14T11:49:01;93996.19;;;24.45;56.35
10732;BME280;5417;42.686;23.244;2023-06-14T11:51:30;93993.78;;;24.37;56.38
10732;BME280;5417;42.686;23.244;2023-06-14T11:53:58;93991.03;;;24.19;56.18
10732;BME280;5417;42.686;23.244;2023-06-14T11:56:25;93994.75;;;24.18;56.60
10732;BME280;5417;42.686;23.244;2023-06-14T11:58:52;93991.75;;;24.08;55.97
10732;BME280;5417;42.686;23.244;2023-06-14T12:01:22;93989.56;;;24.23;56.30
10732;BME280;5417;42.686;23.244;2023-06-14T12:03:49;93972.44;;;24.19;55.05
10732;BME280;5417;42.686;23.244;2023-06-14T12:06:26;93974.72;;;24.40;55.19
10732;BME280;5417;42.686;23.244;2023-06-14T12:08:57;93966.69;;;24.47;56.64
10732;BME280;5417;42.686;23.244;2023-06-14T12:11:31;93958.97;;;24.39;56.38
10732;BME280;5417;42.686;23.244;2023-06-14T12:13:58;93952.34;;;24.48;56.72
10732;BME280;5417;42.686;23.244;2023-06-14T12:16:30;93966.72;;;24.40;54.33
10732;BME280;5417;42.686;23.244;2023-06-14T12:19:00;93958.97;;;24.39;55.71
10732;BME280;5417;42.686;23.244;2023-06-14T12:21:29;93947.94;;;24.35;54.69
10732;BME280;5417;42.686;23.244;2023-06-14T12:23:55;93952.72;;;24.51;53.80
10732;BME280;5417;42.686;23.244;2023-06-14T12:26:24;93937.50;;;24.59;54.26
10732;BME280;5417;42.686;23.244;2023-06-14T12:28:52;93951.16;;;24.80;54.73
10732;BME280;5417;42.686;23.244;2023-06-14T12:31:19;93957.09;;;25.01;53.94
10732;BME280;5417;42.686;23.244;2023-06-14T12:33:46;93951.22;;;24.92;53.10
10732;BME280;5417;42.686;23.244;2023-06-14T12:36:14;93941.47;;;24.86;52.90
10732;BME280;5417;42.686;23.244;2023-06-14T12:38:43;93947.75;;;24.92;52.47
10732;BME280;5417;42.686;23.244;2023-06-14T12:41:11;93927.84;;;24.94;54.10
10732;BME280;5417;42.686;23.244;2023-06-14T12:43:39;93933.38;;;24.99;53.95
10732;BME280;5417;42.686;23.244;2023-06-14T12:47:01;93930.03;;;25.04;54.43
10732;BME280;5417;42.686;23.244;2023-06-14T12:49:21;93926.53;;;24.85;54.29
10732;BME280;5417;42.686;23.244;2023-06-14T12:53:11;93922.69;;;24.81;54.77
10732;BME280;5417;42.686;23.244;2023-06-14T12:55:14;93922.81;;;24.86;54.05
10732;BME280;5417;42.686;23.244;2023-06-14T12:57:41;93911.03;;;25.00;54.42
10732;BME280;5417;42.686;23.244;2023-06-14T13:00:09;93912.69;;;24.95;54.93
10732;BME280;5417;42.686;23.244;2023-06-14T13:02:36;93932.53;;;24.80;53.36
10732;BME280;5417;42.686;23.244;2023-06-14T13:05:03;93919.16;;;24.69;53.82
10732;BME280;5417;42.686;23.244;2023-06-14T13:07:30;93917.66;;;24.73;55.15
10732;BME280;5417;42.686;23.244;2023-06-14T13:09:57;93916.50;;;24.50;55.82
10732;BME280;5417;42.686;23.244;2023-06-14T13:12:26;93920.47;;;24.41;56.40
10732;BME280;5417;42.686;23.244;2023-06-14T13:14:53;93923.44;;;24.08;57.46
10732;BME280;5417;42.686;23.244;2023-06-14T13:17:19;93935.09;;;24.07;57.13
10732;BME280;5417;42.686;23.244;2023-06-14T13:19:46;93923.50;;;24.02;57.02
10732;BME280;5417;42.686;23.244;2023-06-14T13:22:13;93929.25;;;23.99;58.30
10732;BME280;5417;42.686;23.244;2023-06-14T13:24:40;93935.41;;;23.92;58.65
10732;BME280;5417;42.686;23.244;2023-06-14T13:27:11;93941.59;;;23.86;58.95
10732;BME280;5417;42.686;23.244;2023-06-14T13:29:41;93956.53;;;23.87;58.69
10732;BME280;5417;42.686;23.244;2023-06-14T13:32:08;93948.72;;;23.68;58.28
10732;BME280;5417;42.686;23.244;2023-06-14T13:34:35;93953.13;;;23.49;59.10
10732;BME280;5417;42.686;23.244;2023-06-14T13:37:01;93968.91;;;23.37;58.14
10732;BME280;5417;42.686;23.244;2023-06-14T13:40:12;93971.41;;;22.81;59.37
10732;BME280;5417;42.686;23.244;2023-06-14T13:42:39;93967.16;;;22.60;62.02
10732;BME280;5417;42.686;23.244;2023-06-14T13:45:11;93961.69;;;22.35;64.14
10732;BME280;5417;42.686;23.244;2023-06-14T13:47:38;93973.34;;;22.01;66.59
10732;BME280;5417;42.686;23.244;2023-06-14T13:50:06;93981.31;;;21.94;68.04
10732;BME280;5417;42.686;23.244;2023-06-14T13:52:35;93985.19;;;21.85;68.36
10732;BME280;5417;42.686;23.244;2023-06-14T13:55:03;93987.78;;;21.72;69.31
10732;BME280;5417;42.686;23.244;2023-06-14T13:57:30;93968.84;;;21.62;70.29
10732;BME280;5417;42.686;23.244;2023-06-14T13:59:58;93980.47;;;21.67;70.09
10732;BME280;5417;42.686;23.244;2023-06-14T14:02:28;93979.84;;;21.59;70.57
10732;BME280;5417;42.686;23.244;2023-06-14T14:04:55;93979.03;;;21.58;70.24
10732;BME280;5417;42.686;23.244;2023-06-14T14:07:22;93977.19;;;21.52;71.21
10732;BME280;5417;42.686;23.244;2023-06-14T14:09:49;93979.03;;;21.52;72.63
10732;BME280;5417;42.686;23.244;2023-06-14T14:12:16;93974.53;;;21.46;73.24
10732;BME280;5417;42.686;23.244;2023-06-14T14:14:43;93980.66;;;21.46;73.20
10732;BME280;5417;42.686;23.244;2023-06-14T14:17:10;93985.53;;;21.42;72.44
10732;BME280;5417;42.686;23.244;2023-06-14T14:19:38;93980.63;;;21.39;71.71
10732;BME280;5417;42.686;23.244;2023-06-14T14:22:05;93983.50;;;21.45;71.91